sensor_id;sensor_type;location;lat;lon;timestamp;temperature;humidity
25192;DHT22;13143;50.924;5.320;2023-12-22T00:00:20;11.20;99.90
25192;DHT22;13143;50.924;5.320;2023-12-22T00:02:46;11.20;99.90
25192;DHT22;13143;50.924;5.320;2023-12-22T00:05:11;11.10;99.90
25192;DHT22;13143;50.924;5.320;2023-12-22T00:07:37;11.10;99.90
25192;DHT22;13143;50.924;5.320;2023-12-22T00:10:03;11.10;99.90
25192;DHT22;13143;50.924;5.320;2023-12-22T00:12:29;11.00;99.90
25192;DHT22;13143;50.924;5.320;2023-12-22T00:14:54;11.00;99.90
25192;DHT22;13143;50.924;5.320;2023-12-22T00:17:20;11.00;99.90
25192;DHT22;13143;50.924;5.320;2023-12-22T00:19:46;11.00;99.90
25192;DHT22;13143;50.924;5.320;2023-12-22T00:22:11;11.00;99.90
25192;DHT22;13143;50.924;5.320;2023-12-22T00:24:37;11.00;99.90
25192;DHT22;13143;50.924;5.320;2023-12-22T00:27:03;11.00;99.90
25192;DHT22;13143;50.924;5.320;2023-12-22T00:29:28;11.00;99.90
25192;DHT22;13143;50.924;5.320;2023-12-22T00:31:54;11.00;99.90
25192;DHT22;13143;50.924;5.320;2023-12-22T00:34:22;11.00;99.90
25192;DHT22;13143;50.924;5.320;2023-12-22T00:36:47;11.00;99.90
25192;DHT22;13143;50.924;5.320;2023-12-22T00:39:13;11.00;99.90
25192;DHT22;13143;50.924;5.320;2023-12-22T00:41:39;10.90;99.90
25192;DHT22;13143;50.924;5.320;2023-12-22T00:44:05;11.00;99.90
25192;DHT22;13143;50.924;5.320;2023-12-22T00:46:30;10.90;99.90
25192;DHT22;13143;50.924;5.320;2023-12-22T00:48:56;10.90;99.90
25192;DHT22;13143;50.924;5.320;2023-12-22T00:51:22;10.90;99.90
25192;DHT22;13143;50.924;5.320;2023-12-22T00:53:47;10.90;99.90
25192;DHT22;13143;50.924;5.320;2023-12-22T00:56:13;10.90;99.90
25192;DHT22;13143;50.924;5.320;2023-12-22T00:58:40;10.90;99.90
25192;DHT22;13143;50.924;5.320;2023-12-22T01:01:05;10.90;99.90
25192;DHT22;13143;50.924;5.320;2023-12-22T01:03:31;10.90;99.90
25192;DHT22;13143;50.924;5.320;2023-12-22T01:05:57;10.90;99.90
25192;DHT22;13143;50.924;5.320;2023-12-22T01:08:22;10.90;99.90
25192;DHT22;13143;50.924;5.320;2023-12-22T01:10:48;10.90;99.90
25192;DHT22;13143;50.924;5.320;2023-12-22T01:13:14;10.90;99.90
25192;DHT22;13143;50.924;5.320;2023-12-22T01:15:40;10.90;99.90
25192;DHT22;13143;50.924;5.320;2023-12-22T01:18:06;10.90;99.90
25192;DHT22;13143;50.924;5.320;2023-12-22T01:20:31;10.90;99.90
25192;DHT22;13143;50.924;5.320;2023-12-22T01:22:57;10.90;99.90
25192;DHT22;13143;50.924;5.320;2023-12-22T01:25:23;10.90;99.90
25192;DHT22;13143;50.924;5.320;2023-12-22T01:27:49;10.90;99.90
25192;DHT22;13143;50.924;5.320;2023-12-22T01:30:17;10.90;99.90
25192;DHT22;13143;50.924;5.320;2023-12-22T01:32:44;10.90;99.90
25192;DHT22;13143;50.924;5.320;2023-12-22T01:35:10;10.90;99.90
25192;DHT22;13143;50.924;5.320;2023-12-22T01:37:36;10.90;99.90
25192;DHT22;13143;50.924;5.320;2023-12-22T01:40:03;10.90;99.90
25192;DHT22;13143;50.924;5.320;2023-12-22T01:42:30;10.80;99.90
25192;DHT22;13143;50.924;5.320;2023-12-22T01:44:55;10.90;99.90
25192;DHT22;13143;50.924;5.320;2023-12-22T01:47:21;10.80;99.90
25192;DHT22;13143;50.924;5.320;2023-12-22T01:49:48;10.90;99.90
25192;DHT22;13143;50.924;5.320;2023-12-22T01:52:15;10.90;99.90
25192;DHT22;13143;50.924;5.320;2023-12-22T01:54:41;10.90;99.90
25192;DHT22;13143;50.924;5.320;2023-12-22T01:57:07;10.80;99.90
25192;DHT22;13143;50.924;5.320;2023-12-22T01:59:33;10.80;99.90
25192;DHT22;13143;50.924;5.320;2023-12-22T02:02:03;10.80;99.90
25192;DHT22;13143;50.924;5.320;2023-12-22T02:04:30;10.80;99.90
25192;DHT22;13143;50.924;5.320;2023-12-22T02:07:01;10.90;99.90
25192;DHT22;13143;50.924;5.320;2023-12-22T02:09:27;10.80;99.90
25192;DHT22;13143;50.924;5.320;2023-12-22T02:11:53;10.80;99.90
25192;DHT22;13143;50.924;5.320;2023-12-22T02:14:18;10.90;99.90
25192;DHT22;13143;50.924;5.320;2023-12-22T02:17:13;10.90;99.90
25192;DHT22;13143;50.924;5.320;2023-12-22T02:19:43;10.80;99.90
25192;DHT22;13143;50.924;5.320;2023-12-22T02:22:12;10.80;99.90
25192;DHT22;13143;50.924;5.320;2023-12-22T02:24:41;10.80;99.90
25192;DHT22;13143;50.924;5.320;2023-12-22T02:27:40;10.80;99.90
25192;DHT22;13143;50.924;5.320;2023-12-22T02:30:31;10.80;99.90
25192;DHT22;13143;50.924;5.320;2023-12-22T02:33:00;10.80;99.90
25192;DHT22;13143;50.924;5.320;2023-12-22T02:35:28;10.80;99.90
25192;DHT22;13143;50.924;5.320;2023-12-22T02:37:57;10.80;99.90
25192;DHT22;13143;50.924;5.320;2023-12-22T02:40:25;10.80;99.90
25192;DHT22;13143;50.924;5.320;2023-12-22T02:42:52;10.80;99.90
25192;DHT22;13143;50.924;5.320;2023-12-22T02:45:19;10.70;99.90
25192;DHT22;13143;50.924;5.320;2023-12-22T02:47:46;10.80;99.90
25192;DHT22;13143;50.924;5.320;2023-12-22T02:50:16;10.80;99.90
25192;DHT22;13143;50.924;5.320;2023-12-22T02:52:42;10.80;99.90
25192;DHT22;13143;50.924;5.320;2023-12-22T02:55:09;10.80;99.90
25192;DHT22;13143;50.924;5.320;2023-12-22T02:57:35;10.80;99.90
25192;DHT22;13143;50.924;5.320;2023-12-22T03:00:00;10.80;99.90
25192;DHT22;13143;50.924;5.320;2023-12-22T03:02:26;10.80;99.90
25192;DHT22;13143;50.924;5.320;2023-12-22T03:04:52;10.80;99.90
25192;DHT22;13143;50.924;5.320;2023-12-22T03:07:18;10.80;99.90
25192;DHT22;13143;50.924;5.320;2023-12-22T03:09:44;10.70;99.90
25192;DHT22;13143;50.924;5.320;2023-12-22T03:12:10;10.70;99.90
25192;DHT22;13143;50.924;5.320;2023-12-22T03:14:36;10.70;99.90
25192;DHT22;13143;50.924;5.320;2023-12-22T03:17:04;10.70;99.90
25192;DHT22;13143;50.924;5.320;2023-12-22T03:19:30;10.70;99.90
25192;DHT22;13143;50.924;5.320;2023-12-22T03:21:56;10.70;99.90
25192;DHT22;13143;50.924;5.320;2023-12-22T03:24:23;10.70;99.90
25192;DHT22;13143;50.924;5.320;2023-12-22T03:26:49;10.70;99.90
25192;DHT22;13143;50.924;5.320;2023-12-22T03:29:15;10.70;99.90
25192;DHT22;13143;50.924;5.320;2023-12-22T03:31:41;10.70;99.90
25192;DHT22;13143;50.924;5.320;2023-12-22T03:34:07;10.70;99.90
25192;DHT22;13143;50.924;5.320;2023-12-22T03:36:33;10.70;99.90
25192;DHT22;13143;50.924;5.320;2023-12-22T03:38:59;10.70;99.90
25192;DHT22;13143;50.924;5.320;2023-12-22T03:41:25;10.70;99.90
25192;DHT22;13143;50.924;5.320;2023-12-22T03:43:50;10.70;99.90
25192;DHT22;13143;50.924;5.320;2023-12-22T03:46:16;10.70;99.90
25192;DHT22;13143;50.924;5.320;2023-12-22T03:48:42;10.70;99.90
25192;DHT22;13143;50.924;5.320;2023-12-22T03:51:08;10.70;99.90
25192;DHT22;13143;50.924;5.320;2023-12-22T03:53:36;10.70;99.90
25192;DHT22;13143;50.924;5.320;2023-12-22T03:56:02;10.70;99.90
25192;DHT22;13143;50.924;5.320;2023-12-22T03:58:28;10.70;99.90
25192;DHT22;13143;50.924;5.320;2023-12-22T04:00:55;10.70;99.90
25192;DHT22;13143;50.924;5.320;2023-12-22T04:03:22;10.60;99.90
25192;DHT22;13143;50.924;5.320;2023-12-22T04:05:47;10.60;99.90
25192;DHT22;13143;50.924;5.320;2023-12-22T04:08:13;10.70;99.90
25192;DHT22;13143;50.924;5.320;2023-12-22T04:10:42;10.60;99.90
25192;DHT22;13143;50.924;5.320;2023-12-22T04:13:10;10.60;99.90
25192;DHT22;13143;50.924;5.320;2023-12-22T04:15:35;10.70;99.90
25192;DHT22;13143;50.924;5.320;2023-12-22T04:18:01;10.60;99.90
25192;DHT22;13143;50.924;5.320;2023-12-22T04:20:27;10.60;99.90
25192;DHT22;13143;50.924;5.320;2023-12-22T04:22:53;10.60;99.90
25192;DHT22;13143;50.924;5.320;2023-12-22T04:25:19;10.60;99.90
25192;DHT22;13143;50.924;5.320;2023-12-22T04:27:45;10.60;99.90
25192;DHT22;13143;50.924;5.320;2023-12-22T04:30:11;10.60;99.90
25192;DHT22;13143;50.924;5.320;2023-12-22T04:32:40;10.70;99.90
25192;DHT22;13143;50.924;5.320;2023-12-22T04:35:06;10.60;99.90
25192;DHT22;13143;50.924;5.320;2023-12-22T04:37:32;10.70;99.90
25192;DHT22;13143;50.924;5.320;2023-12-22T04:39:58;10.60;99.90
25192;DHT22;13143;50.924;5.320;2023-12-22T04:42:24;10.70;99.90
25192;DHT22;13143;50.924;5.320;2023-12-22T04:44:51;10.70;99.90
25192;DHT22;13143;50.924;5.320;2023-12-22T04:47:18;10.70;99.90
25192;DHT22;13143;50.924;5.320;2023-12-22T04:49:44;10.70;99.90
25192;DHT22;13143;50.924;5.320;2023-12-22T04:52:11;10.70;99.90
25192;DHT22;13143;50.924;5.320;2023-12-22T04:54:37;10.70;99.90
25192;DHT22;13143;50.924;5.320;2023-12-22T04:57:03;10.70;99.90
25192;DHT22;13143;50.924;5.320;2023-12-22T04:59:29;10.70;99.90
25192;DHT22;13143;50.924;5.320;2023-12-22T05:01:55;10.70;99.90
25192;DHT22;13143;50.924;5.320;2023-12-22T05:04:21;10.70;99.90
25192;DHT22;13143;50.924;5.320;2023-12-22T05:06:50;10.70;99.90
25192;DHT22;13143;50.924;5.320;2023-12-22T05:09:16;10.70;99.90
25192;DHT22;13143;50.924;5.320;2023-12-22T05:11:42;10.70;99.90
25192;DHT22;13143;50.924;5.320;2023-12-22T05:14:09;10.70;99.90
25192;DHT22;13143;50.924;5.320;2023-12-22T05:16:38;10.70;99.90
25192;DHT22;13143;50.924;5.320;2023-12-22T05:19:04;10.70;99.90
25192;DHT22;13143;50.924;5.320;2023-12-22T05:21:29;10.70;99.90
25192;DHT22;13143;50.924;5.320;2023-12-22T05:23:55;10.70;99.90
25192;DHT22;13143;50.924;5.320;2023-12-22T05:26:21;10.70;99.90
25192;DHT22;13143;50.924;5.320;2023-12-22T05:28:48;10.70;99.90
25192;DHT22;13143;50.924;5.320;2023-12-22T05:31:17;10.70;99.90
25192;DHT22;13143;50.924;5.320;2023-12-22T05:33:43;10.70;99.90
25192;DHT22;13143;50.924;5.320;2023-12-22T05:36:09;10.60;99.90
25192;DHT22;13143;50.924;5.320;2023-12-22T05:38:39;10.70;99.90
25192;DHT22;13143;50.924;5.320;2023-12-22T05:41:05;10.70;99.90
25192;DHT22;13143;50.924;5.320;2023-12-22T05:43:34;10.70;99.90
25192;DHT22;13143;50.924;5.320;2023-12-22T05:46:00;10.70;99.90
25192;DHT22;13143;50.924;5.320;2023-12-22T05:48:27;10.70;99.90
25192;DHT22;13143;50.924;5.320;2023-12-22T05:50:58;10.60;99.90
25192;DHT22;13143;50.924;5.320;2023-12-22T05:53:24;10.70;99.90
25192;DHT22;13143;50.924;5.320;2023-12-22T05:55:50;10.60;99.90
25192;DHT22;13143;50.924;5.320;2023-12-22T05:58:16;10.60;99.90
25192;DHT22;13143;50.924;5.320;2023-12-22T06:00:42;10.60;99.90
25192;DHT22;13143;50.924;5.320;2023-12-22T06:03:08;10.60;99.90
25192;DHT22;13143;50.924;5.320;2023-12-22T06:05:34;10.60;99.90
25192;DHT22;13143;50.924;5.320;2023-12-22T06:08:00;10.60;99.90
25192;DHT22;13143;50.924;5.320;2023-12-22T06:10:26;10.60;99.90
25192;DHT22;13143;50.924;5.320;2023-12-22T06:12:52;10.60;99.90
25192;DHT22;13143;50.924;5.320;2023-12-22T06:15:17;10.60;99.90
25192;DHT22;13143;50.924;5.320;2023-12-22T06:17:44;10.60;99.90
25192;DHT22;13143;50.924;5.320;2023-12-22T06:20:10;10.60;99.90
25192;DHT22;13143;50.924;5.320;2023-12-22T06:22:35;10.60;99.90
25192;DHT22;13143;50.924;5.320;2023-12-22T06:25:01;10.60;99.90
25192;DHT22;13143;50.924;5.320;2023-12-22T06:27:35;10.60;99.90
25192;DHT22;13143;50.924;5.320;2023-12-22T06:30:04;10.50;99.90
25192;DHT22;13143;50.924;5.320;2023-12-22T06:32:30;10.60;99.90
25192;DHT22;13143;50.924;5.320;2023-12-22T06:34:56;10.60;99.90
25192;DHT22;13143;50.924;5.320;2023-12-22T06:37:25;10.50;99.90
25192;DHT22;13143;50.924;5.320;2023-12-22T06:39:51;10.50;99.90
25192;DHT22;13143;50.924;5.320;2023-12-22T06:42:16;10.50;99.90
25192;DHT22;13143;50.924;5.320;2023-12-22T06:44:42;10.50;99.90
25192;DHT22;13143;50.924;5.320;2023-12-22T06:47:11;10.50;99.90
25192;DHT22;13143;50.924;5.320;2023-12-22T06:49:37;10.50;99.90
25192;DHT22;13143;50.924;5.320;2023-12-22T06:52:04;10.50;99.90
25192;DHT22;13143;50.924;5.320;2023-12-22T06:54:29;10.50;99.90
25192;DHT22;13143;50.924;5.320;2023-12-22T06:56:55;10.50;99.90
25192;DHT22;13143;50.924;5.320;2023-12-22T06:59:21;10.50;99.90
25192;DHT22;13143;50.924;5.320;2023-12-22T07:01:47;10.50;99.90
25192;DHT22;13143;50.924;5.320;2023-12-22T07:04:13;10.50;99.90
25192;DHT22;13143;50.924;5.320;2023-12-22T07:06:38;10.50;99.90
25192;DHT22;13143;50.924;5.320;2023-12-22T07:11:40;10.50;99.90
25192;DHT22;13143;50.924;5.320;2023-12-22T07:14:06;10.50;99.90
25192;DHT22;13143;50.924;5.320;2023-12-22T07:16:35;10.50;99.90
25192;DHT22;13143;50.924;5.320;2023-12-22T07:19:01;10.50;99.90
25192;DHT22;13143;50.924;5.320;2023-12-22T07:21:28;10.50;99.90
25192;DHT22;13143;50.924;5.320;2023-12-22T07:23:54;10.50;99.90
25192;DHT22;13143;50.924;5.320;2023-12-22T07:26:19;10.50;99.90
25192;DHT22;13143;50.924;5.320;2023-12-22T07:28:47;10.50;99.90
25192;DHT22;13143;50.924;5.320;2023-12-22T07:31:14;10.50;99.90
25192;DHT22;13143;50.924;5.320;2023-12-22T07:33:40;10.50;99.90
25192;DHT22;13143;50.924;5.320;2023-12-22T07:36:06;10.50;99.90
25192;DHT22;13143;50.924;5.320;2023-12-22T07:38:32;10.50;99.90
25192;DHT22;13143;50.924;5.320;2023-12-22T07:40:58;10.50;99.90
25192;DHT22;13143;50.924;5.320;2023-12-22T07:43:25;10.50;99.90
25192;DHT22;13143;50.924;5.320;2023-12-22T07:45:50;10.50;99.90
25192;DHT22;13143;50.924;5.320;2023-12-22T07:48:17;10.40;99.90
25192;DHT22;13143;50.924;5.320;2023-12-22T07:50:43;10.50;99.90
25192;DHT22;13143;50.924;5.320;2023-12-22T07:53:10;10.50;99.90
25192;DHT22;13143;50.924;5.320;2023-12-22T07:55:36;10.50;99.90
25192;DHT22;13143;50.924;5.320;2023-12-22T07:58:04;10.40;99.90
25192;DHT22;13143;50.924;5.320;2023-12-22T08:00:30;10.40;99.90
25192;DHT22;13143;50.924;5.320;2023-12-22T08:02:56;10.40;99.90
25192;DHT22;13143;50.924;5.320;2023-12-22T08:05:22;10.40;99.90
25192;DHT22;13143;50.924;5.320;2023-12-22T08:07:51;10.40;99.90
25192;DHT22;13143;50.924;5.320;2023-12-22T08:10:16;10.40;99.90
25192;DHT22;13143;50.924;5.320;2023-12-22T08:12:43;10.40;99.90
25192;DHT22;13143;50.924;5.320;2023-12-22T08:15:09;10.50;99.90
25192;DHT22;13143;50.924;5.320;2023-12-22T08:17:49;10.40;99.90
25192;DHT22;13143;50.924;5.320;2023-12-22T08:20:19;10.40;99.90
25192;DHT22;13143;50.924;5.320;2023-12-22T08:22:46;10.40;99.90
25192;DHT22;13143;50.924;5.320;2023-12-22T08:25:15;10.40;99.90
25192;DHT22;13143;50.924;5.320;2023-12-22T08:27:41;10.40;99.90
25192;DHT22;13143;50.924;5.320;2023-12-22T08:30:11;10.40;99.90
25192;DHT22;13143;50.924;5.320;2023-12-22T08:32:37;10.40;99.90
25192;DHT22;13143;50.924;5.320;2023-12-22T08:35:03;10.40;99.90
25192;DHT22;13143;50.924;5.320;2023-12-22T08:37:33;10.40;99.90
25192;DHT22;13143;50.924;5.320;2023-12-22T08:39:59;10.40;99.90
25192;DHT22;13143;50.924;5.320;2023-12-22T08:42:26;10.40;99.90
25192;DHT22;13143;50.924;5.320;2023-12-22T08:44:52;10.40;99.90
25192;DHT22;13143;50.924;5.320;2023-12-22T08:47:18;10.40;99.90
25192;DHT22;13143;50.924;5.320;2023-12-22T08:49:43;10.40;99.90
25192;DHT22;13143;50.924;5.320;2023-12-22T08:52:09;10.40;99.90
25192;DHT22;13143;50.924;5.320;2023-12-22T08:54:35;10.40;99.90
25192;DHT22;13143;50.924;5.320;2023-12-22T08:57:04;10.40;99.90
25192;DHT22;13143;50.924;5.320;2023-12-22T08:59:30;10.40;99.90
25192;DHT22;13143;50.924;5.320;2023-12-22T09:01:56;10.40;99.90
25192;DHT22;13143;50.924;5.320;2023-12-22T09:04:22;10.40;99.90
25192;DHT22;13143;50.924;5.320;2023-12-22T09:06:51;10.40;99.90
25192;DHT22;13143;50.924;5.320;2023-12-22T09:09:17;10.40;99.90
25192;DHT22;13143;50.924;5.320;2023-12-22T09:11:43;10.40;99.90
25192;DHT22;13143;50.924;5.320;2023-12-22T09:14:10;10.40;99.90
25192;DHT22;13143;50.924;5.320;2023-12-22T09:16:37;10.40;99.90
25192;DHT22;13143;50.924;5.320;2023-12-22T09:19:03;10.40;99.90
25192;DHT22;13143;50.924;5.320;2023-12-22T09:21:29;10.40;99.90
25192;DHT22;13143;50.924;5.320;2023-12-22T09:23:55;10.50;99.90
25192;DHT22;13143;50.924;5.320;2023-12-22T09:26:21;10.50;99.90
25192;DHT22;13143;50.924;5.320;2023-12-22T09:28:47;10.40;99.90
25192;DHT22;13143;50.924;5.320;2023-12-22T09:31:13;10.50;99.90
25192;DHT22;13143;50.924;5.320;2023-12-22T09:33:40;10.50;99.90
25192;DHT22;13143;50.924;5.320;2023-12-22T09:36:07;10.50;99.90
25192;DHT22;13143;50.924;5.320;2023-12-22T09:38:33;10.50;99.90
25192;DHT22;13143;50.924;5.320;2023-12-22T09:41:00;10.50;99.90
25192;DHT22;13143;50.924;5.320;2023-12-22T09:43:26;10.50;99.90
25192;DHT22;13143;50.924;5.320;2023-12-22T09:45:53;10.50;99.90
25192;DHT22;13143;50.924;5.320;2023-12-22T09:48:20;10.50;99.90
25192;DHT22;13143;50.924;5.320;2023-12-22T09:50:53;10.50;99.90
25192;DHT22;13143;50.924;5.320;2023-12-22T09:53:20;10.50;99.90
25192;DHT22;13143;50.924;5.320;2023-12-22T09:55:47;10.50;99.90
25192;DHT22;13143;50.924;5.320;2023-12-22T09:58:14;10.50;99.90
25192;DHT22;13143;50.924;5.320;2023-12-22T10:00:42;10.50;99.90
25192;DHT22;13143;50.924;5.320;2023-12-22T10:03:11;10.60;99.90
25192;DHT22;13143;50.924;5.320;2023-12-22T10:05:38;10.50;99.90
25192;DHT22;13143;50.924;5.320;2023-12-22T10:08:05;10.50;99.90
25192;DHT22;13143;50.924;5.320;2023-12-22T10:10:32;10.60;99.90
25192;DHT22;13143;50.924;5.320;2023-12-22T10:13:01;10.50;99.90
25192;DHT22;13143;50.924;5.320;2023-12-22T10:15:31;10.60;99.90
25192;DHT22;13143;50.924;5.320;2023-12-22T10:17:57;10.60;99.90
25192;DHT22;13143;50.924;5.320;2023-12-22T10:20:23;10.60;99.90
25192;DHT22;13143;50.924;5.320;2023-12-22T10:22:52;10.60;99.90
25192;DHT22;13143;50.924;5.320;2023-12-22T10:25:20;10.60;99.90
25192;DHT22;13143;50.924;5.320;2023-12-22T10:27:52;10.60;99.90
25192;DHT22;13143;50.924;5.320;2023-12-22T10:30:19;10.60;99.90
25192;DHT22;13143;50.924;5.320;2023-12-22T10:32:45;10.60;99.90
25192;DHT22;13143;50.924;5.320;2023-12-22T10:35:11;10.60;99.90
25192;DHT22;13143;50.924;5.320;2023-12-22T10:37:38;10.60;99.90
25192;DHT22;13143;50.924;5.320;2023-12-22T10:40:09;10.60;99.90
25192;DHT22;13143;50.924;5.320;2023-12-22T10:42:35;10.70;99.90
25192;DHT22;13143;50.924;5.320;2023-12-22T10:45:01;10.70;99.90
25192;DHT22;13143;50.924;5.320;2023-12-22T10:47:28;10.70;99.90
25192;DHT22;13143;50.924;5.320;2023-12-22T10:49:54;10.70;99.90
25192;DHT22;13143;50.924;5.320;2023-12-22T10:52:20;10.70;99.90
25192;DHT22;13143;50.924;5.320;2023-12-22T10:54:48;10.70;99.90
25192;DHT22;13143;50.924;5.320;2023-12-22T10:57:17;10.70;99.90
25192;DHT22;13143;50.924;5.320;2023-12-22T10:59:47;10.70;99.90
25192;DHT22;13143;50.924;5.320;2023-12-22T11:02:17;10.70;99.90
25192;DHT22;13143;50.924;5.320;2023-12-22T11:05:03;10.70;99.90
25192;DHT22;13143;50.924;5.320;2023-12-22T11:07:36;10.70;99.90
25192;DHT22;13143;50.924;5.320;2023-12-22T11:10:04;10.80;99.90
25192;DHT22;13143;50.924;5.320;2023-12-22T11:12:38;10.80;99.90
25192;DHT22;13143;50.924;5.320;2023-12-22T11:15:05;10.80;99.90
25192;DHT22;13143;50.924;5.320;2023-12-22T11:17:33;10.80;99.90
25192;DHT22;13143;50.924;5.320;2023-12-22T11:20:03;10.80;99.90
25192;DHT22;13143;50.924;5.320;2023-12-22T11:22:29;10.80;99.90
25192;DHT22;13143;50.924;5.320;2023-12-22T11:24:58;10.80;99.90
25192;DHT22;13143;50.924;5.320;2023-12-22T11:27:26;10.90;99.90
25192;DHT22;13143;50.924;5.320;2023-12-22T11:29:53;10.90;99.90
25192;DHT22;13143;50.924;5.320;2023-12-22T11:32:20;10.90;99.90
25192;DHT22;13143;50.924;5.320;2023-12-22T11:34:47;10.90;99.90
25192;DHT22;13143;50.924;5.320;2023-12-22T11:37:14;10.90;99.90
25192;DHT22;13143;50.924;5.320;2023-12-22T11:39:41;10.90;99.90
25192;DHT22;13143;50.924;5.320;2023-12-22T11:42:19;10.90;99.90
25192;DHT22;13143;50.924;5.320;2023-12-22T11:44:47;10.90;99.90
25192;DHT22;13143;50.924;5.320;2023-12-22T11:47:14;10.90;99.90
25192;DHT22;13143;50.924;5.320;2023-12-22T11:49:40;10.90;99.90
25192;DHT22;13143;50.924;5.320;2023-12-22T11:52:13;11.00;99.90
25192;DHT22;13143;50.924;5.320;2023-12-22T11:54:50;11.00;99.90
25192;DHT22;13143;50.924;5.320;2023-12-22T12:00:05;11.00;99.90
25192;DHT22;13143;50.924;5.320;2023-12-22T12:02:34;11.00;99.90
25192;DHT22;13143;50.924;5.320;2023-12-22T12:05:01;11.00;99.90
25192;DHT22;13143;50.924;5.320;2023-12-22T12:10:08;11.00;99.90
25192;DHT22;13143;50.924;5.320;2023-12-22T12:12:34;11.00;99.90
25192;DHT22;13143;50.924;5.320;2023-12-22T12:15:20;11.00;99.90
25192;DHT22;13143;50.924;5.320;2023-12-22T12:17:50;11.00;99.90
25192;DHT22;13143;50.924;5.320;2023-12-22T12:20:16;11.10;99.90
25192;DHT22;13143;50.924;5.320;2023-12-22T12:22:43;11.10;99.90
25192;DHT22;13143;50.924;5.320;2023-12-22T12:25:11;11.10;99.90
25192;DHT22;13143;50.924;5.320;2023-12-22T12:27:38;11.10;99.90
25192;DHT22;13143;50.924;5.320;2023-12-22T12:30:12;11.10;99.90
25192;DHT22;13143;50.924;5.320;2023-12-22T12:32:41;11.10;99.90
25192;DHT22;13143;50.924;5.320;2023-12-22T12:35:08;11.10;99.90
25192;DHT22;13143;50.924;5.320;2023-12-22T12:37:34;11.10;99.90
25192;DHT22;13143;50.924;5.320;2023-12-22T12:40:02;11.10;99.90
25192;DHT22;13143;50.924;5.320;2023-12-22T12:42:31;11.10;99.90
25192;DHT22;13143;50.924;5.320;2023-12-22T12:44:57;11.10;99.90
25192;DHT22;13143;50.924;5.320;2023-12-22T12:47:23;11.20;99.90
25192;DHT22;13143;50.924;5.320;2023-12-22T12:49:57;11.20;99.90
25192;DHT22;13143;50.924;5.320;2023-12-22T12:52:24;11.20;99.90
25192;DHT22;13143;50.924;5.320;2023-12-22T12:54:51;11.20;99.90
25192;DHT22;13143;50.924;5.320;2023-12-22T12:57:17;11.20;99.90
25192;DHT22;13143;50.924;5.320;2023-12-22T12:59:47;11.20;99.90
25192;DHT22;13143;50.924;5.320;2023-12-22T13:02:15;11.20;99.90
25192;DHT22;13143;50.924;5.320;2023-12-22T13:04:41;11.20;99.90
25192;DHT22;13143;50.924;5.320;2023-12-22T13:07:06;11.20;99.90
25192;DHT22;13143;50.924;5.320;2023-12-22T13:09:33;11.20;99.90
25192;DHT22;13143;50.924;5.320;2023-12-22T13:12:00;11.20;99.90
25192;DHT22;13143;50.924;5.320;2023-12-22T13:14:26;11.20;99.90
25192;DHT22;13143;50.924;5.320;2023-12-22T13:16:54;11.20;99.90
25192;DHT22;13143;50.924;5.320;2023-12-22T13:19:22;11.20;99.90
25192;DHT22;13143;50.924;5.320;2023-12-22T13:21:50;11.30;99.90
25192;DHT22;13143;50.924;5.320;2023-12-22T13:24:16;11.30;99.90
25192;DHT22;13143;50.924;5.320;2023-12-22T13:26:43;11.30;99.90
25192;DHT22;13143;50.924;5.320;2023-12-22T13:29:11;11.30;99.90
25192;DHT22;13143;50.924;5.320;2023-12-22T13:31:41;11.30;99.90
25192;DHT22;13143;50.924;5.320;2023-12-22T13:34:09;11.30;99.90
25192;DHT22;13143;50.924;5.320;2023-12-22T13:36:36;11.30;99.90
25192;DHT22;13143;50.924;5.320;2023-12-22T13:39:07;11.30;99.90
25192;DHT22;13143;50.924;5.320;2023-12-22T13:44:04;11.30;99.90
25192;DHT22;13143;50.924;5.320;2023-12-22T13:46:31;11.30;99.90
25192;DHT22;13143;50.924;5.320;2023-12-22T13:48:59;11.30;99.90
25192;DHT22;13143;50.924;5.320;2023-12-22T13:51:25;11.40;99.90
25192;DHT22;13143;50.924;5.320;2023-12-22T13:53:51;11.40;99.90
25192;DHT22;13143;50.924;5.320;2023-12-22T13:56:17;11.40;99.90
25192;DHT22;13143;50.924;5.320;2023-12-22T13:58:46;11.40;99.90
25192;DHT22;13143;50.924;5.320;2023-12-22T14:01:16;11.40;99.90
25192;DHT22;13143;50.924;5.320;2023-12-22T14:03:43;11.40;99.90
25192;DHT22;13143;50.924;5.320;2023-12-22T14:06:13;11.40;99.90
25192;DHT22;13143;50.924;5.320;2023-12-22T14:08:40;11.40;99.90
25192;DHT22;13143;50.924;5.320;2023-12-22T14:11:09;11.50;99.90
25192;DHT22;13143;50.924;5.320;2023-12-22T14:13:35;11.40;99.90
25192;DHT22;13143;50.924;5.320;2023-12-22T14:16:07;11.40;99.90
25192;DHT22;13143;50.924;5.320;2023-12-22T14:18:33;11.50;99.90
25192;DHT22;13143;50.924;5.320;2023-12-22T14:21:02;11.50;99.90
25192;DHT22;13143;50.924;5.320;2023-12-22T14:23:31;11.50;99.90
25192;DHT22;13143;50.924;5.320;2023-12-22T14:25:57;11.50;99.90
25192;DHT22;13143;50.924;5.320;2023-12-22T14:28:23;11.50;99.90
25192;DHT22;13143;50.924;5.320;2023-12-22T14:30:49;11.40;99.90
25192;DHT22;13143;50.924;5.320;2023-12-22T14:33:15;11.40;99.90
25192;DHT22;13143;50.924;5.320;2023-12-22T14:35:41;11.50;99.90
25192;DHT22;13143;50.924;5.320;2023-12-22T14:38:07;11.50;99.90
25192;DHT22;13143;50.924;5.320;2023-12-22T14:40:33;11.50;99.90
25192;DHT22;13143;50.924;5.320;2023-12-22T14:42:59;11.50;99.90
25192;DHT22;13143;50.924;5.320;2023-12-22T14:45:27;11.50;99.90
25192;DHT22;13143;50.924;5.320;2023-12-22T14:47:53;11.50;99.90
25192;DHT22;13143;50.924;5.320;2023-12-22T14:50:19;11.50;99.90
25192;DHT22;13143;50.924;5.320;2023-12-22T14:52:45;11.50;99.90
25192;DHT22;13143;50.924;5.320;2023-12-22T14:55:11;11.50;99.90
25192;DHT22;13143;50.924;5.320;2023-12-22T14:57:37;11.50;99.90
25192;DHT22;13143;50.924;5.320;2023-12-22T15:00:04;11.50;99.90
25192;DHT22;13143;50.924;5.320;2023-12-22T15:02:31;11.50;99.90
25192;DHT22;13143;50.924;5.320;2023-12-22T15:04:57;11.50;99.90
25192;DHT22;13143;50.924;5.320;2023-12-22T15:07:23;11.50;99.90
25192;DHT22;13143;50.924;5.320;2023-12-22T15:09:48;11.50;99.90
25192;DHT22;13143;50.924;5.320;2023-12-22T15:12:15;11.50;99.90
25192;DHT22;13143;50.924;5.320;2023-12-22T15:14:45;11.50;99.90
25192;DHT22;13143;50.924;5.320;2023-12-22T15:17:11;11.50;99.90
25192;DHT22;13143;50.924;5.320;2023-12-22T15:19:41;11.50;99.90
25192;DHT22;13143;50.924;5.320;2023-12-22T15:22:11;11.50;99.90
25192;DHT22;13143;50.924;5.320;2023-12-22T15:24:37;11.50;99.90
25192;DHT22;13143;50.924;5.320;2023-12-22T15:27:11;11.50;99.90
25192;DHT22;13143;50.924;5.320;2023-12-22T15:29:37;11.50;99.90
25192;DHT22;13143;50.924;5.320;2023-12-22T15:32:03;11.50;99.90
25192;DHT22;13143;50.924;5.320;2023-12-22T15:34:31;11.50;99.90
25192;DHT22;13143;50.924;5.320;2023-12-22T15:36:56;11.50;99.90
25192;DHT22;13143;50.924;5.320;2023-12-22T15:39:23;11.50;99.90